createdAt,value
2023-02-06T00:01:36.106Z,16.17
2023-02-06T00:04:04.483Z,18.38
2023-02-06T00:06:32.265Z,12.88
2023-02-06T00:09:00.307Z,22.52
2023-02-06T00:11:27.939Z,14.40
2023-02-06T00:13:56.846Z,20.77
2023-02-06T00:16:30.574Z,12.65
2023-02-06T00:18:59.354Z,13.32
2023-02-06T00:21:28.346Z,20.65
2023-02-06T00:23:58.874Z,15.85
2023-02-06T00:26:27.575Z,10.65
2023-02-06T00:28:55.532Z,13.88
2023-02-06T00:31:25.042Z,12.63
2023-02-06T00:33:53.063Z,11.55
2023-02-06T00:36:20.912Z,16.75
2023-02-06T00:38:49.091Z,11.73
2023-02-06T00:41:16.684Z,10.23
2023-02-06T00:43:44.539Z,20.02
2023-02-06T00:46:13.161Z,20.08
2023-02-06T00:49:06.512Z,9.25
2023-02-06T00:51:36.455Z,15.10
2023-02-06T00:54:04.687Z,7.45
2023-02-06T00:56:32.372Z,14.77
2023-02-06T00:59:00.892Z,9.15
2023-02-06T01:01:29.190Z,10.25
2023-02-06T01:03:56.848Z,14.35
2023-02-06T01:06:24.904Z,8.20
2023-02-06T01:08:52.928Z,7.05
2023-02-06T01:11:23.308Z,13.95
2023-02-06T01:13:51.618Z,14.35
2023-02-06T01:16:23.021Z,8.85
2023-02-06T01:18:51.051Z,16.55
2023-02-06T01:21:22.789Z,11.10
2023-02-06T01:23:53.329Z,7.88
2023-02-06T01:26:24.177Z,16.65
2023-02-06T01:28:51.967Z,7.60
2023-02-06T01:31:28.235Z,11.48
2023-02-06T01:33:58.442Z,5.72
2023-02-06T01:36:26.542Z,6.47
2023-02-06T01:38:54.738Z,9.68
2023-02-06T01:41:25.592Z,8.60
2023-02-06T01:44:10.889Z,13.23
2023-02-06T01:46:41.208Z,15.73
2023-02-06T01:49:12.256Z,10.75
2023-02-06T01:51:41.142Z,10.38
2023-02-06T01:54:09.809Z,6.20
2023-02-06T01:56:44.123Z,13.38
2023-02-06T01:59:13.071Z,11.20
2023-02-06T02:01:42.129Z,11.73
2023-02-06T02:04:15.212Z,12.15
2023-02-06T02:06:43.013Z,15.00
2023-02-06T02:09:10.682Z,13.13
2023-02-06T02:11:42.153Z,10.40
2023-02-06T02:14:13.566Z,8.45
2023-02-06T02:17:07.955Z,6.15
2023-02-06T02:22:44.482Z,8.57
2023-02-06T02:25:37.896Z,6.28
2023-02-06T02:28:43.971Z,8.63
2023-02-06T02:31:36.344Z,15.43
2023-02-06T02:34:14.600Z,12.02
2023-02-06T02:36:46.465Z,9.23
2023-02-06T02:39:30.251Z,14.90
2023-02-06T02:42:20.730Z,8.15
2023-02-06T02:44:55.589Z,9.52
2023-02-06T02:47:34.104Z,13.38
2023-02-06T02:50:03.854Z,11.02
2023-02-06T02:52:31.820Z,5.40
2023-02-06T02:55:00.678Z,9.10
2023-02-06T02:57:31.944Z,6.80
2023-02-06T03:00:01.468Z,7.38
2023-02-06T03:02:36.195Z,7.93
2023-02-06T03:05:08.736Z,8.25
2023-02-06T03:08:13.915Z,9.27
2023-02-06T03:10:44.991Z,14.25
2023-02-06T03:13:39.498Z,12.48
2023-02-06T03:16:07.728Z,14.90
2023-02-06T03:19:05.167Z,9.60
2023-02-06T03:21:35.838Z,14.60
2023-02-06T03:24:10.143Z,16.75
2023-02-06T03:26:39.847Z,11.40
2023-02-06T03:29:12.805Z,7.18
2023-02-06T03:31:46.234Z,7.40
2023-02-06T03:34:40.577Z,9.85
2023-02-06T03:37:08.921Z,9.35
2023-02-06T03:39:36.752Z,13.18
2023-02-06T03:42:06.234Z,8.48
2023-02-06T03:44:39.501Z,10.80
2023-02-06T03:47:10.758Z,14.43
2023-02-06T03:49:41.693Z,12.15
2023-02-06T03:52:15.398Z,21.17
2023-02-06T03:54:49.883Z,18.80
2023-02-06T03:57:19.454Z,16.42
2023-02-06T03:59:48.129Z,18.92
2023-02-06T04:02:17.895Z,15.52
2023-02-06T04:04:46.248Z,24.98
2023-02-06T04:07:27.850Z,23.80
2023-02-06T04:09:56.720Z,19.92
2023-02-06T04:12:25.349Z,23.70
2023-02-06T04:14:53.293Z,22.58
2023-02-06T04:17:38.539Z,17.45
2023-02-06T04:20:09.177Z,15.52
2023-02-06T04:22:37.543Z,25.08
2023-02-06T04:25:06.881Z,22.60
2023-02-06T04:27:34.400Z,22.42
2023-02-06T04:30:02.083Z,23.77
2023-02-06T04:32:29.658Z,23.35
2023-02-06T04:34:57.629Z,21.58
2023-02-06T04:37:25.284Z,24.17
2023-02-06T04:39:52.821Z,20.33
2023-02-06T04:42:20.793Z,22.40
2023-02-06T04:44:48.294Z,23.08
2023-02-06T04:47:16.026Z,19.83
2023-02-06T04:49:43.628Z,23.70
2023-02-06T04:52:12.115Z,23.00
2023-02-06T04:54:40.069Z,24.75
2023-02-06T04:57:08.050Z,26.85
2023-02-06T04:59:35.515Z,30.27
2023-02-06T05:02:03.070Z,20.42
2023-02-06T05:04:30.682Z,23.75
2023-02-06T05:06:58.237Z,23.45
2023-02-06T05:09:25.885Z,23.30
2023-02-06T05:11:53.875Z,27.77
2023-02-06T05:14:23.249Z,24.17
2023-02-06T05:16:51.670Z,23.52
2023-02-06T05:19:19.182Z,26.73
2023-02-06T05:21:46.943Z,32.72
2023-02-06T05:24:15.062Z,26.35
2023-02-06T05:26:42.690Z,25.92
2023-02-06T05:29:11.058Z,28.00
2023-02-06T05:31:39.137Z,20.52
2023-02-06T05:34:06.839Z,22.23
2023-02-06T05:36:34.792Z,20.65
2023-02-06T05:39:02.296Z,25.67
2023-02-06T05:41:30.265Z,25.42
2023-02-06T05:43:57.835Z,23.52
2023-02-06T05:46:25.557Z,24.73
2023-02-06T05:48:53.200Z,26.17
2023-02-06T05:51:20.792Z,33.00
2023-02-06T05:53:48.396Z,24.98
2023-02-06T05:56:15.950Z,22.58
2023-02-06T05:58:43.495Z,26.25
2023-02-06T06:01:13.460Z,20.33
2023-02-06T06:03:47.117Z,23.98
2023-02-06T06:06:28.082Z,35.35
2023-02-06T06:08:58.267Z,29.38
2023-02-06T06:11:29.135Z,25.50
2023-02-06T06:13:56.731Z,23.48
2023-02-06T06:16:24.534Z,25.45
2023-02-06T06:18:52.251Z,25.42
2023-02-06T06:21:20.347Z,24.75
2023-02-06T06:23:48.001Z,26.50
2023-02-06T06:26:16.233Z,24.85
2023-02-06T06:28:44.183Z,31.92
2023-02-06T06:31:13.047Z,29.50
2023-02-06T06:33:41.524Z,23.88
2023-02-06T06:36:11.424Z,23.50
2023-02-06T06:38:40.444Z,43.90
2023-02-06T06:41:08.088Z,23.08
2023-02-06T06:43:36.230Z,22.15
2023-02-06T06:46:05.362Z,26.08
2023-02-06T06:48:34.370Z,46.75
2023-02-06T06:51:02.103Z,18.88
2023-02-06T06:53:30.692Z,20.83
2023-02-06T06:56:05.742Z,23.15
2023-02-06T06:58:33.745Z,22.23
2023-02-06T07:01:01.508Z,14.90
2023-02-06T07:03:29.093Z,16.42
2023-02-06T07:05:57.384Z,18.27
2023-02-06T07:08:25.078Z,13.57
2023-02-06T07:10:53.176Z,18.83
2023-02-06T07:13:20.876Z,14.27
2023-02-06T07:15:48.844Z,18.77
2023-02-06T07:18:16.962Z,21.45
2023-02-06T07:20:44.751Z,16.17
2023-02-06T07:23:12.614Z,18.77
2023-02-06T07:25:40.137Z,22.77
2023-02-06T07:28:08.476Z,21.27
2023-02-06T07:30:36.424Z,16.00
2023-02-06T07:33:05.714Z,16.55
2023-02-06T07:35:34.396Z,20.75
2023-02-06T07:38:02.744Z,22.88
2023-02-06T07:40:44.078Z,19.23
2023-02-06T07:43:14.085Z,17.92
2023-02-06T07:45:42.087Z,15.70
2023-02-06T07:48:10.480Z,26.65
2023-02-06T07:50:38.662Z,26.00
2023-02-06T07:53:07.927Z,27.27
2023-02-06T07:55:38.474Z,24.65
2023-02-06T07:58:06.555Z,29.17
2023-02-06T08:00:34.390Z,27.35
2023-02-06T08:03:01.952Z,25.33
2023-02-06T08:05:29.490Z,22.85
2023-02-06T08:07:57.641Z,25.67
2023-02-06T08:10:26.019Z,27.13
2023-02-06T08:12:53.610Z,25.50
2023-02-06T08:15:21.186Z,32.35
2023-02-06T08:17:48.801Z,27.60
2023-02-06T08:20:16.398Z,26.55
2023-02-06T08:22:44.057Z,34.42
2023-02-06T08:25:11.648Z,30.58
2023-02-06T08:27:39.681Z,31.48
2023-02-06T08:30:08.414Z,32.80
2023-02-06T08:32:36.427Z,25.50
2023-02-06T08:35:04.246Z,22.38
2023-02-06T08:37:32.757Z,32.83
2023-02-06T08:40:00.780Z,22.85
2023-02-06T08:42:28.418Z,16.98
2023-02-06T08:44:56.105Z,18.77
2023-02-06T08:47:23.697Z,17.33
2023-02-06T08:49:51.872Z,20.10
2023-02-06T08:52:19.642Z,22.63
2023-02-06T08:54:47.588Z,16.73
2023-02-06T08:57:15.112Z,20.02
2023-02-06T08:59:43.117Z,19.33
2023-02-06T09:02:11.877Z,20.08
2023-02-06T09:04:39.487Z,13.95
2023-02-06T09:07:07.948Z,14.25
2023-02-06T09:09:35.634Z,15.98
2023-02-06T09:12:05.289Z,13.15
2023-02-06T09:14:33.155Z,14.57
2023-02-06T09:17:01.776Z,15.90
2023-02-06T09:19:29.492Z,14.88
2023-02-06T09:21:57.455Z,12.55
2023-02-06T09:24:25.765Z,13.95
2023-02-06T09:26:59.943Z,13.88
2023-02-06T09:29:31.799Z,14.15
2023-02-06T09:32:00.128Z,13.60
2023-02-06T09:34:29.065Z,14.65
2023-02-06T09:36:58.054Z,20.15
2023-02-06T09:39:26.222Z,11.30
2023-02-06T09:41:59.997Z,15.82
2023-02-06T09:47:02.506Z,11.73
2023-02-06T09:49:53.158Z,13.60
2023-02-06T09:52:52.358Z,11.38
2023-02-06T09:55:32.809Z,13.23
2023-02-06T09:58:27.418Z,16.75
2023-02-06T10:03:41.550Z,10.88
2023-02-06T10:06:27.604Z,9.35
2023-02-06T10:09:04.666Z,8.05
2023-02-06T10:11:45.264Z,13.38
2023-02-06T10:14:43.705Z,11.15
2023-02-06T10:17:27.015Z,9.82
2023-02-06T10:19:54.661Z,10.13
2023-02-06T10:22:38.890Z,14.63
2023-02-06T10:25:25.071Z,14.93
2023-02-06T10:27:57.801Z,11.32
2023-02-06T10:30:55.530Z,7.95
2023-02-06T10:33:53.417Z,9.95
2023-02-06T10:36:37.267Z,12.10
2023-02-06T10:39:23.610Z,12.13
2023-02-06T10:42:00.456Z,12.07
2023-02-06T10:44:53.871Z,9.48
2023-02-06T10:47:41.716Z,8.60
2023-02-06T10:50:12.954Z,14.68
2023-02-06T10:52:41.358Z,9.20
2023-02-06T10:55:22.750Z,12.07
2023-02-06T10:58:11.817Z,10.23
2023-02-06T11:00:40.591Z,13.45
2023-02-06T11:03:15.904Z,14.10
2023-02-06T11:05:43.519Z,8.68
2023-02-06T11:08:21.127Z,9.90
2023-02-06T11:10:49.556Z,9.60
2023-02-06T11:13:30.549Z,12.38
2023-02-06T11:16:06.307Z,12.48
2023-02-06T11:18:37.110Z,15.18
2023-02-06T11:21:07.558Z,21.85
2023-02-06T11:23:36.033Z,10.85
2023-02-06T11:26:16.422Z,12.63
2023-02-06T11:29:08.866Z,11.45
2023-02-06T11:31:47.330Z,11.68
2023-02-06T11:34:24.380Z,15.45
2023-02-06T11:36:56.160Z,14.27
2023-02-06T11:39:23.879Z,11.45
2023-02-06T11:42:05.508Z,13.32
2023-02-06T11:44:41.926Z,9.82
2023-02-06T11:47:33.943Z,14.77
2023-02-06T11:50:14.237Z,17.60
2023-02-06T11:52:46.756Z,23.60
2023-02-06T11:55:30.259Z,15.73
2023-02-06T11:58:22.341Z,12.60
2023-02-06T12:00:52.980Z,18.77
2023-02-06T12:03:44.698Z,13.05
2023-02-06T12:06:16.991Z,10.60
2023-02-06T12:08:51.474Z,11.43
2023-02-06T12:11:39.838Z,12.02
2023-02-06T12:14:19.255Z,12.98
2023-02-06T12:16:47.571Z,18.42
2023-02-06T12:19:31.718Z,13.93
2023-02-06T12:22:16.775Z,13.55
2023-02-06T12:24:49.234Z,11.95
2023-02-06T12:27:26.996Z,11.23
2023-02-06T12:30:07.788Z,21.17
2023-02-06T12:32:42.074Z,15.65
2023-02-06T12:35:33.967Z,13.25
2023-02-06T12:38:11.149Z,14.80
2023-02-06T12:40:57.468Z,11.38
2023-02-06T12:43:25.087Z,19.05
2023-02-06T12:45:59.913Z,12.93
2023-02-06T12:48:51.609Z,18.70
2023-02-06T12:51:27.962Z,14.68
2023-02-06T12:54:15.798Z,13.18
2023-02-06T12:56:55.644Z,12.38
2023-02-06T12:59:57.159Z,9.32
2023-02-06T13:02:50.825Z,17.30
2023-02-06T13:05:40.585Z,12.65
2023-02-06T13:08:15.365Z,15.80
2023-02-06T13:10:44.328Z,16.13
2023-02-06T13:13:31.484Z,12.35
2023-02-06T13:16:02.461Z,17.98
2023-02-06T13:18:44.689Z,16.02
2023-02-06T13:21:25.083Z,14.50
2023-02-06T13:24:01.754Z,15.32
2023-02-06T13:26:48.920Z,11.82
2023-02-06T13:29:28.678Z,15.93
2023-02-06T13:32:46.802Z,12.57
2023-02-06T13:35:21.022Z,13.27
2023-02-06T13:37:51.500Z,10.85
2023-02-06T13:40:26.675Z,9.82
2023-02-06T13:43:15.965Z,19.27
2023-02-06T13:45:53.784Z,11.00
2023-02-06T13:48:46.544Z,17.52
2023-02-06T13:51:51.017Z,14.23
2023-02-06T13:54:56.940Z,12.82
2023-02-06T13:57:55.594Z,15.70
2023-02-06T14:00:31.566Z,14.45
2023-02-06T14:03:13.413Z,14.55
2023-02-06T14:05:51.631Z,13.55
2023-02-06T14:08:54.113Z,12.35
2023-02-06T14:12:11.724Z,8.65
2023-02-06T14:15:07.049Z,12.48
2023-02-06T14:18:15.410Z,6.88
2023-02-06T14:21:02.751Z,9.40
2023-02-06T14:23:36.257Z,11.20
2023-02-06T14:26:26.507Z,11.32
2023-02-06T14:29:13.707Z,18.88
2023-02-06T14:32:13.527Z,14.65
2023-02-06T14:35:13.991Z,11.63
2023-02-06T14:37:51.949Z,13.30
2023-02-06T14:40:27.784Z,11.40
2023-02-06T14:43:04.333Z,9.98
2023-02-06T14:45:42.202Z,10.80
2023-02-06T14:48:43.579Z,14.77
2023-02-06T14:51:34.188Z,10.10
2023-02-06T14:54:07.511Z,14.60
2023-02-06T14:56:38.333Z,15.13
2023-02-06T14:59:18.673Z,16.50
2023-02-06T15:01:50.225Z,16.58
2023-02-06T15:04:29.977Z,17.48
2023-02-06T15:07:00.641Z,16.75
2023-02-06T15:09:38.987Z,11.98
2023-02-06T15:12:21.671Z,15.63
2023-02-06T15:15:13.906Z,15.10
2023-02-06T15:17:41.585Z,12.50
2023-02-06T15:20:25.237Z,16.10
2023-02-06T15:23:02.153Z,19.13
2023-02-06T15:26:00.985Z,11.55
2023-02-06T15:28:31.987Z,15.68
2023-02-06T15:31:01.791Z,16.17
2023-02-06T15:33:33.167Z,14.55
2023-02-06T15:36:04.452Z,11.50
2023-02-06T15:38:34.434Z,15.63
2023-02-06T15:41:07.324Z,11.80
2023-02-06T15:43:36.247Z,10.48
2023-02-06T15:46:06.072Z,20.75
2023-02-06T15:48:57.503Z,17.98
2023-02-06T15:51:29.441Z,17.02
2023-02-06T15:54:24.617Z,15.77
2023-02-06T15:57:08.363Z,14.30
2023-02-06T15:59:40.186Z,20.50
2023-02-06T16:02:23.025Z,28.23
2023-02-06T16:04:54.369Z,19.00
2023-02-06T16:07:25.583Z,22.15
2023-02-06T16:09:59.448Z,30.42
2023-02-06T16:15:02.259Z,15.90
2023-02-06T16:17:41.234Z,31.20
2023-02-06T16:20:34.040Z,28.27
2023-02-06T16:23:23.893Z,15.95
2023-02-06T16:26:13.864Z,17.15
2023-02-06T16:29:03.363Z,23.98
2023-02-06T16:31:35.751Z,25.02
2023-02-06T16:34:29.516Z,23.80
2023-02-06T16:36:57.385Z,23.88
2023-02-06T16:39:25.390Z,17.27
2023-02-06T16:41:54.210Z,23.00
2023-02-06T16:44:22.706Z,20.10
2023-02-06T16:46:52.237Z,17.52
2023-02-06T16:49:22.696Z,25.38
2023-02-06T16:51:53.604Z,29.55
2023-02-06T16:54:28.814Z,18.85
2023-02-06T16:57:01.622Z,17.92
2023-02-06T16:59:29.877Z,22.48
2023-02-06T17:01:58.294Z,23.70
2023-02-06T17:04:25.967Z,22.58
2023-02-06T17:06:53.982Z,18.38
2023-02-06T17:09:21.619Z,22.35
2023-02-06T17:11:49.154Z,23.60
2023-02-06T17:14:18.865Z,25.27
2023-02-06T17:16:46.665Z,23.08
2023-02-06T17:19:15.584Z,26.65
2023-02-06T17:21:44.181Z,19.52
2023-02-06T17:24:11.699Z,25.70
2023-02-06T17:26:39.686Z,35.03
2023-02-06T17:29:08.619Z,23.70
2023-02-06T17:31:36.222Z,21.30
2023-02-06T17:34:04.333Z,24.55
2023-02-06T17:36:33.857Z,23.65
2023-02-06T17:39:02.206Z,25.95
2023-02-06T17:41:31.380Z,25.00
2023-02-06T17:43:59.416Z,21.08
2023-02-06T17:46:27.513Z,28.88
2023-02-06T17:48:55.946Z,24.92
2023-02-06T17:51:24.536Z,26.23
2023-02-06T17:53:52.679Z,20.65
2023-02-06T17:56:21.053Z,25.73
2023-02-06T17:58:49.749Z,23.67
2023-02-06T18:01:22.862Z,26.08
2023-02-06T18:03:52.140Z,20.77
2023-02-06T18:06:20.692Z,31.55
2023-02-06T18:08:49.102Z,21.42
2023-02-06T18:11:19.816Z,25.90
2023-02-06T18:13:50.112Z,25.73
2023-02-06T18:16:21.331Z,35.67
2023-02-06T18:18:50.357Z,46.28
2023-02-06T18:21:20.053Z,24.67
2023-02-06T18:23:49.092Z,32.78
2023-02-06T18:26:17.728Z,29.15
2023-02-06T18:28:45.682Z,23.33
2023-02-06T18:31:31.005Z,29.95
2023-02-06T18:33:59.972Z,23.10
2023-02-06T18:36:28.124Z,25.73
2023-02-06T18:38:57.600Z,39.08
2023-02-06T18:41:43.944Z,36.25
2023-02-06T18:44:12.760Z,30.65
2023-02-06T18:46:40.733Z,29.70
2023-02-06T18:49:09.497Z,29.92
2023-02-06T18:51:37.076Z,23.85
2023-02-06T18:54:05.403Z,35.25
2023-02-06T18:56:34.408Z,23.85
2023-02-06T18:59:04.006Z,28.52
2023-02-06T19:01:33.282Z,22.92
2023-02-06T19:04:01.559Z,23.17
2023-02-06T19:06:35.591Z,27.88
2023-02-06T19:09:07.151Z,37.10
2023-02-06T19:11:36.649Z,29.85
2023-02-06T19:14:05.771Z,27.05
2023-02-06T19:16:35.527Z,25.70
2023-02-06T19:19:03.628Z,29.40
2023-02-06T19:21:31.972Z,30.73
2023-02-06T19:24:00.804Z,29.23
2023-02-06T19:26:29.016Z,29.88
2023-02-06T19:28:57.847Z,27.35
2023-02-06T19:31:26.582Z,30.60
2023-02-06T19:33:59.079Z,34.33
2023-02-06T19:36:28.736Z,25.55
2023-02-06T19:38:58.992Z,30.58
2023-02-06T19:41:29.734Z,31.50
2023-02-06T19:44:02.302Z,27.70
2023-02-06T19:46:30.561Z,34.95
2023-02-06T19:48:58.592Z,27.70
2023-02-06T19:51:33.857Z,25.33
2023-02-06T19:54:02.487Z,37.78
2023-02-06T19:56:34.696Z,32.22
2023-02-06T19:59:09.923Z,28.23
2023-02-06T20:01:38.055Z,25.77
2023-02-06T20:04:06.129Z,28.90
2023-02-06T20:06:35.279Z,24.27
2023-02-06T20:09:05.507Z,28.50
2023-02-06T20:11:33.617Z,29.80
2023-02-06T20:14:01.889Z,27.02
2023-02-06T20:16:34.580Z,25.02
2023-02-06T20:19:07.572Z,28.83
2023-02-06T20:21:39.338Z,26.58
2023-02-06T20:24:15.032Z,25.23
2023-02-06T20:26:43.304Z,22.23
2023-02-06T20:29:24.373Z,22.50
2023-02-06T20:31:53.902Z,22.33
2023-02-06T20:34:22.315Z,26.17
2023-02-06T20:36:51.402Z,32.78
2023-02-06T20:39:19.633Z,26.88
2023-02-06T20:41:49.612Z,24.95
2023-02-06T20:44:18.781Z,23.38
2023-02-06T20:46:47.019Z,21.65
2023-02-06T20:49:18.709Z,28.17
2023-02-06T20:51:46.847Z,22.20
2023-02-06T20:54:15.568Z,29.88
2023-02-06T20:56:43.945Z,23.40
2023-02-06T20:59:14.990Z,27.05
2023-02-06T21:01:43.579Z,23.90
2023-02-06T21:04:14.560Z,27.05
2023-02-06T21:06:43.238Z,26.23
2023-02-06T21:09:12.120Z,19.90
2023-02-06T21:11:44.226Z,20.85
2023-02-06T21:14:13.898Z,21.50
2023-02-06T21:16:43.828Z,23.02
2023-02-06T21:19:14.273Z,22.15
2023-02-06T21:21:44.997Z,23.90
2023-02-06T21:24:15.417Z,22.60
2023-02-06T21:26:43.795Z,27.60
2023-02-06T21:29:13.948Z,29.48
2023-02-06T21:31:42.250Z,34.40
2023-02-06T21:34:21.260Z,27.85
2023-02-06T21:36:49.717Z,27.52
2023-02-06T21:39:21.250Z,27.60
2023-02-06T21:41:53.879Z,24.55
2023-02-06T21:44:26.585Z,26.30
2023-02-06T21:46:56.205Z,27.25
2023-02-06T21:49:24.615Z,35.60
2023-02-06T21:51:53.223Z,28.40
2023-02-06T21:54:20.946Z,29.75
2023-02-06T21:56:49.137Z,36.50
2023-02-06T21:59:17.086Z,35.63
2023-02-06T22:01:45.391Z,27.15
2023-02-06T22:04:13.313Z,28.63
2023-02-06T22:06:41.990Z,38.78
2023-02-06T22:09:15.263Z,28.33
2023-02-06T22:11:43.834Z,32.70
2023-02-06T22:14:14.815Z,33.88
2023-02-06T22:16:42.791Z,28.75
2023-02-06T22:19:11.022Z,32.15
2023-02-06T22:21:39.086Z,28.08
2023-02-06T22:24:09.248Z,26.88
2023-02-06T22:26:38.947Z,31.50
2023-02-06T22:29:10.007Z,30.02
2023-02-06T22:31:40.405Z,39.03
2023-02-06T22:34:11.887Z,37.60
2023-02-06T22:36:39.935Z,33.42
2023-02-06T22:39:10.398Z,42.53
2023-02-06T22:41:42.789Z,34.15
2023-02-06T22:44:16.253Z,33.30
2023-02-06T22:46:46.720Z,28.00
2023-02-06T22:49:14.737Z,31.73
2023-02-06T22:51:43.455Z,31.42
2023-02-06T22:54:12.622Z,38.42
2023-02-06T22:56:43.055Z,31.60
2023-02-06T22:59:12.219Z,29.42
2023-02-06T23:01:45.184Z,27.13
2023-02-06T23:04:17.642Z,27.05
2023-02-06T23:06:47.076Z,34.70
2023-02-06T23:09:27.536Z,30.83
2023-02-06T23:11:58.481Z,28.92
2023-02-06T23:14:28.516Z,31.90
2023-02-06T23:16:56.872Z,25.90
2023-02-06T23:19:25.184Z,30.73
2023-02-06T23:21:52.806Z,35.75
2023-02-06T23:24:21.100Z,28.70
2023-02-06T23:26:51.446Z,30.63
2023-02-06T23:29:20.962Z,34.65
2023-02-06T23:31:49.556Z,34.35
2023-02-06T23:34:18.896Z,26.85
2023-02-06T23:36:46.742Z,33.75
2023-02-06T23:39:14.361Z,28.23
2023-02-06T23:41:42.437Z,31.52
2023-02-06T23:44:10.751Z,25.00
2023-02-06T23:46:40.145Z,36.72
2023-02-06T23:49:09.229Z,27.92
2023-02-06T23:51:38.187Z,32.60
2023-02-06T23:54:07.618Z,31.77
2023-02-06T23:56:36.561Z,33.25
2023-02-06T23:59:06.421Z,31.38
